Tyler, TX

11:13 AM CST on noiembrie 26, 2014 (GMT -0600)
McDonaldRd | Change Station
CLOSE
Current Station
Staţie meteo personală
Location: Tyler, TX
Elevation: 623 ft
Nearby Weather Stations

Elev 623 ft 32.32 °N, 95.27 °W | Updated 1 minute ago

Cer senin
Cer senin
59.2 °F
Feels Like 59.2 °F
N
4.0
Vânt variabil Vânt from est
Gusts 7.0 mph

astăzi
High -- | Low -- °F
--% Chance of Precip.
Ieri
High -- | Low -- °F
Precip. -- inch
7:00 AM 5:16 PM
Semilună în creştere, 21% visible
Presiunea 30.15 inch
Vizibilitatea 10.0 mile
Nori Cer senin
Punctul de rouă 31 °F
Umiditatea 34%
Precipitaţii 0.00 inch
Adâncimea zăpezii Not available.
UV 4 out of 12
Pollen 2.10 out of 12
Calitatea aerului Not available.
Flu Activity Not available.
METAR KTYR 261653Z 27010KT 10SM CLR 16/M02 A3015 RMK AO2 SLP208 T01561017

More Conditions Fewer Conditions

Presiunea 30.15 inch
Vizibilitatea 10.0 mile
Nori Cer senin
Punctul de rouă 31 °F
Umiditatea 34%
Precipitaţii 0.00 inch
Adâncimea zăpezii Not available.
UV 4 out of 12
Pollen 2.10 out of 12
Calitatea aerului Not available.
Flu Activity Not available.
METAR KTYR 261653Z 27010KT 10SM CLR 16/M02 A3015 RMK AO2 SLP208 T01561017

More Conditions Fewer Conditions

10-Day Weather Forecast

Almanac

Astronomie

Nov. 26, 2014 Răsărit Apus
Timpul Actual
Crepusculul Civil
Crepusculul nautic
Răsărit Astronomic
Luna
Durata zilei lumină
Lungimea zilei
Tomorrow will be .
, % of the Moon is Illuminated

Extremele de azi

State Highs State Lows

Community

WunderPhotos

Upload Photos

1,773,800 photos uploaded!

WunderBlogs® & News

Nearby

Calitatea aerului

  Calitatea aerului Index de calitate a aerului Poluat
Not available.

Adâncimea zapezii

Station Depth Elevation

Earthquake Activity

Oraş Distance Mag. Time & Date
Minimum magnitude displayed is 2.5.

Coastal Water Temperatures

Locul Temperatura

Nearby Weather Stations